sensor_id;sensor_type;location;lat;lon;timestamp;pressure;altitude;pressure_sealevel;temperature
30765;BMP180;494;48.744;10.106;2023-06-10T00:00:12;95394.00;;;17.40
30765;BMP180;494;48.744;10.106;2023-06-10T00:02:43;95405.00;;;17.40
30765;BMP180;494;48.744;10.106;2023-06-10T00:05:13;95404.00;;;17.40
30765;BMP180;494;48.744;10.106;2023-06-10T00:07:43;95331.00;;;17.40
30765;BMP180;494;48.744;10.106;2023-06-10T00:10:13;95373.00;;;16.90
30765;BMP180;494;48.744;10.106;2023-06-10T00:12:43;95247.00;;;17.40
30765;BMP180;494;48.744;10.106;2023-06-10T00:15:12;95393.00;;;17.50
30765;BMP180;494;48.744;10.106;2023-06-10T00:17:41;95012.00;;;17.10
30765;BMP180;494;48.744;10.106;2023-06-10T00:20:13;95410.00;;;17.40
30765;BMP180;494;48.744;10.106;2023-06-10T00:22:41;95414.00;;;17.30
30765;BMP180;494;48.744;10.106;2023-06-10T00:25:13;95417.00;;;17.40
30765;BMP180;494;48.744;10.106;2023-06-10T00:27:44;95281.00;;;17.50
30765;BMP180;494;48.744;10.106;2023-06-10T00:30:14;95409.00;;;17.40
30765;BMP180;494;48.744;10.106;2023-06-10T00:32:42;95368.00;;;17.30
30765;BMP180;494;48.744;10.106;2023-06-10T00:35:12;95413.00;;;17.40
30765;BMP180;494;48.744;10.106;2023-06-10T00:37:41;95293.00;;;17.40
30765;BMP180;494;48.744;10.106;2023-06-10T00:40:11;95412.00;;;17.40
30765;BMP180;494;48.744;10.106;2023-06-10T00:42:40;95415.00;;;17.20
30765;BMP180;494;48.744;10.106;2023-06-10T00:45:10;95284.00;;;17.20
30765;BMP180;494;48.744;10.106;2023-06-10T00:47:39;95342.00;;;17.20
30765;BMP180;494;48.744;10.106;2023-06-10T00:50:09;95412.00;;;17.10
30765;BMP180;494;48.744;10.106;2023-06-10T00:52:42;95345.00;;;16.90
30765;BMP180;494;48.744;10.106;2023-06-10T00:55:14;95078.00;;;16.90
30765;BMP180;494;48.744;10.106;2023-06-10T00:57:46;95434.00;;;17.00
30765;BMP180;494;48.744;10.106;2023-06-10T01:00:16;95306.00;;;16.90
30765;BMP180;494;48.744;10.106;2023-06-10T01:02:45;95337.00;;;16.70
30765;BMP180;494;48.744;10.106;2023-06-10T01:05:15;95399.00;;;16.70
30765;BMP180;494;48.744;10.106;2023-06-10T01:07:56;95391.00;;;16.60
30765;BMP180;494;48.744;10.106;2023-06-10T01:10:34;95402.00;;;16.60
30765;BMP180;494;48.744;10.106;2023-06-10T01:13:07;95325.00;;;16.60
30765;BMP180;494;48.744;10.106;2023-06-10T01:15:40;95403.00;;;16.50
30765;BMP180;494;48.744;10.106;2023-06-10T01:18:10;95375.00;;;16.70
30765;BMP180;494;48.744;10.106;2023-06-10T01:20:43;95427.00;;;16.00
30765;BMP180;494;48.744;10.106;2023-06-10T01:23:16;95398.00;;;16.70
30765;BMP180;494;48.744;10.106;2023-06-10T01:25:52;95315.00;;;14.60
30765;BMP180;494;48.744;10.106;2023-06-10T01:28:31;95404.00;;;16.60
30765;BMP180;494;48.744;10.106;2023-06-10T01:31:15;95295.00;;;16.70
30765;BMP180;494;48.744;10.106;2023-06-10T01:33:53;95214.00;;;16.50
30765;BMP180;494;48.744;10.106;2023-06-10T01:36:23;95349.00;;;16.50
30765;BMP180;494;48.744;10.106;2023-06-10T01:38:54;95361.00;;;16.70
30765;BMP180;494;48.744;10.106;2023-06-10T01:41:24;95399.00;;;16.70
30765;BMP180;494;48.744;10.106;2023-06-10T01:43:55;95365.00;;;16.50
30765;BMP180;494;48.744;10.106;2023-06-10T01:46:23;95336.00;;;16.00
30765;BMP180;494;48.744;10.106;2023-06-10T01:48:52;95243.00;;;16.70
30765;BMP180;494;48.744;10.106;2023-06-10T01:51:21;95194.00;;;15.80
30765;BMP180;494;48.744;10.106;2023-06-10T01:53:50;95298.00;;;16.10
30765;BMP180;494;48.744;10.106;2023-06-10T01:56:20;95203.00;;;16.60
30765;BMP180;494;48.744;10.106;2023-06-10T01:58:49;95401.00;;;16.60
30765;BMP180;494;48.744;10.106;2023-06-10T02:01:18;95396.00;;;16.40
30765;BMP180;494;48.744;10.106;2023-06-10T02:03:47;95397.00;;;16.40
30765;BMP180;494;48.744;10.106;2023-06-10T02:06:16;95400.00;;;16.40
30765;BMP180;494;48.744;10.106;2023-06-10T02:08:45;95402.00;;;16.20
30765;BMP180;494;48.744;10.106;2023-06-10T02:11:14;95259.00;;;15.70
30765;BMP180;494;48.744;10.106;2023-06-10T02:13:44;95420.00;;;16.00
30765;BMP180;494;48.744;10.106;2023-06-10T02:16:13;95408.00;;;16.00
30765;BMP180;494;48.744;10.106;2023-06-10T02:18:44;95371.00;;;15.90
30765;BMP180;494;48.744;10.106;2023-06-10T02:21:13;95405.00;;;15.90
30765;BMP180;494;48.744;10.106;2023-06-10T02:23:42;95320.00;;;16.00
30765;BMP180;494;48.744;10.106;2023-06-10T02:26:10;95195.00;;;15.50
30765;BMP180;494;48.744;10.106;2023-06-10T02:28:44;95406.00;;;15.80
30765;BMP180;494;48.744;10.106;2023-06-10T02:31:13;95365.00;;;16.10
30765;BMP180;494;48.744;10.106;2023-06-10T02:33:45;95407.00;;;16.10
30765;BMP180;494;48.744;10.106;2023-06-10T02:36:14;95412.00;;;16.10
30765;BMP180;494;48.744;10.106;2023-06-10T02:38:42;95401.00;;;16.00
30765;BMP180;494;48.744;10.106;2023-06-10T02:41:11;95329.00;;;16.20
30765;BMP180;494;48.744;10.106;2023-06-10T02:43:40;95277.00;;;16.00
30765;BMP180;494;48.744;10.106;2023-06-10T02:46:10;95409.00;;;16.10
30765;BMP180;494;48.744;10.106;2023-06-10T02:48:43;95437.00;;;16.00
30765;BMP180;494;48.744;10.106;2023-06-10T02:51:12;95265.00;;;16.00
30765;BMP180;494;48.744;10.106;2023-06-10T02:53:40;95213.00;;;16.00
30765;BMP180;494;48.744;10.106;2023-06-10T02:56:09;95445.00;;;16.00
30765;BMP180;494;48.744;10.106;2023-06-10T02:58:40;95115.00;;;15.90
30765;BMP180;494;48.744;10.106;2023-06-10T03:01:13;95445.00;;;15.70
30765;BMP180;494;48.744;10.106;2023-06-10T03:03:45;95220.00;;;15.70
30765;BMP180;494;48.744;10.106;2023-06-10T03:06:14;95326.00;;;16.10
30765;BMP180;494;48.744;10.106;2023-06-10T03:08:42;95363.00;;;16.00
30765;BMP180;494;48.744;10.106;2023-06-10T03:11:12;95418.00;;;16.00
30765;BMP180;494;48.744;10.106;2023-06-10T03:13:41;95371.00;;;15.80
30765;BMP180;494;48.744;10.106;2023-06-10T03:16:10;95338.00;;;15.80
30765;BMP180;494;48.744;10.106;2023-06-10T03:18:41;95339.00;;;15.80
30765;BMP180;494;48.744;10.106;2023-06-10T03:21:12;95434.00;;;15.90
30765;BMP180;494;48.744;10.106;2023-06-10T03:23:41;95275.00;;;15.50
30765;BMP180;494;48.744;10.106;2023-06-10T03:26:10;95217.00;;;15.80
30765;BMP180;494;48.744;10.106;2023-06-10T03:28:40;95286.00;;;15.30
30765;BMP180;494;48.744;10.106;2023-06-10T03:31:09;95430.00;;;15.50
30765;BMP180;494;48.744;10.106;2023-06-10T03:33:37;95364.00;;;15.60
30765;BMP180;494;48.744;10.106;2023-06-10T03:36:08;95424.00;;;15.40
30765;BMP180;494;48.744;10.106;2023-06-10T03:38:37;95240.00;;;15.60
30765;BMP180;494;48.744;10.106;2023-06-10T03:41:06;95309.00;;;15.30
30765;BMP180;494;48.744;10.106;2023-06-10T03:43:34;95451.00;;;15.70
30765;BMP180;494;48.744;10.106;2023-06-10T03:46:03;95346.00;;;15.60
30765;BMP180;494;48.744;10.106;2023-06-10T03:48:32;95439.00;;;15.80
30765;BMP180;494;48.744;10.106;2023-06-10T03:51:01;95093.00;;;15.60
30765;BMP180;494;48.744;10.106;2023-06-10T03:53:31;95416.00;;;15.80
30765;BMP180;494;48.744;10.106;2023-06-10T03:56:02;95305.00;;;15.90
30765;BMP180;494;48.744;10.106;2023-06-10T03:58:31;95442.00;;;16.00
30765;BMP180;494;48.744;10.106;2023-06-10T04:00:59;95439.00;;;16.00
30765;BMP180;494;48.744;10.106;2023-06-10T04:03:29;95375.00;;;15.80
30765;BMP180;494;48.744;10.106;2023-06-10T04:05:59;95365.00;;;16.10
30765;BMP180;494;48.744;10.106;2023-06-10T04:08:28;95332.00;;;16.20
30765;BMP180;494;48.744;10.106;2023-06-10T04:11:04;95429.00;;;16.20
30765;BMP180;494;48.744;10.106;2023-06-10T04:13:32;95389.00;;;15.90
30765;BMP180;494;48.744;10.106;2023-06-10T04:16:01;95322.00;;;16.20
30765;BMP180;494;48.744;10.106;2023-06-10T04:18:31;95380.00;;;16.30
30765;BMP180;494;48.744;10.106;2023-06-10T04:21:00;95380.00;;;16.50
30765;BMP180;494;48.744;10.106;2023-06-10T04:23:28;95445.00;;;16.50
30765;BMP180;494;48.744;10.106;2023-06-10T04:25:59;95461.00;;;16.70
30765;BMP180;494;48.744;10.106;2023-06-10T04:28:28;95459.00;;;16.60
30765;BMP180;494;48.744;10.106;2023-06-10T04:30:56;95463.00;;;16.30
30765;BMP180;494;48.744;10.106;2023-06-10T04:33:25;95453.00;;;16.80
30765;BMP180;494;48.744;10.106;2023-06-10T04:35:55;95435.00;;;17.00
30765;BMP180;494;48.744;10.106;2023-06-10T04:38:24;95409.00;;;17.00
30765;BMP180;494;48.744;10.106;2023-06-10T04:40:53;95277.00;;;17.20
30765;BMP180;494;48.744;10.106;2023-06-10T04:43:23;95486.00;;;17.10
30765;BMP180;494;48.744;10.106;2023-06-10T04:45:52;95481.00;;;17.20
30765;BMP180;494;48.744;10.106;2023-06-10T04:48:21;95451.00;;;17.40
30765;BMP180;494;48.744;10.106;2023-06-10T04:50:51;95439.00;;;17.50
30765;BMP180;494;48.744;10.106;2023-06-10T04:53:19;95376.00;;;17.60
30765;BMP180;494;48.744;10.106;2023-06-10T04:55:48;95307.00;;;17.60
30765;BMP180;494;48.744;10.106;2023-06-10T04:58:17;95448.00;;;17.80
30765;BMP180;494;48.744;10.106;2023-06-10T05:00:49;95341.00;;;17.80
30765;BMP180;494;48.744;10.106;2023-06-10T05:03:18;95391.00;;;17.40
30765;BMP180;494;48.744;10.106;2023-06-10T05:05:47;95447.00;;;17.90
30765;BMP180;494;48.744;10.106;2023-06-10T05:08:16;95458.00;;;18.00
30765;BMP180;494;48.744;10.106;2023-06-10T05:10:46;95369.00;;;18.10
30765;BMP180;494;48.744;10.106;2023-06-10T05:13:16;95386.00;;;18.20
30765;BMP180;494;48.744;10.106;2023-06-10T05:15:46;95318.00;;;18.40
30765;BMP180;494;48.744;10.106;2023-06-10T05:18:15;95461.00;;;18.50
30765;BMP180;494;48.744;10.106;2023-06-10T05:20:44;95445.00;;;18.50
30765;BMP180;494;48.744;10.106;2023-06-10T05:23:14;95459.00;;;18.70
30765;BMP180;494;48.744;10.106;2023-06-10T05:25:43;95336.00;;;18.90
30765;BMP180;494;48.744;10.106;2023-06-10T05:28:13;95463.00;;;19.00
30765;BMP180;494;48.744;10.106;2023-06-10T05:30:42;95311.00;;;18.80
30765;BMP180;494;48.744;10.106;2023-06-10T05:33:12;95415.00;;;19.30
30765;BMP180;494;48.744;10.106;2023-06-10T05:35:41;95466.00;;;19.30
30765;BMP180;494;48.744;10.106;2023-06-10T05:38:10;95486.00;;;19.60
30765;BMP180;494;48.744;10.106;2023-06-10T05:40:38;95258.00;;;19.90
30765;BMP180;494;48.744;10.106;2023-06-10T05:43:07;95467.00;;;20.00
30765;BMP180;494;48.744;10.106;2023-06-10T05:45:37;95472.00;;;20.00
30765;BMP180;494;48.744;10.106;2023-06-10T05:48:07;95428.00;;;20.50
30765;BMP180;494;48.744;10.106;2023-06-10T05:50:39;95490.00;;;20.70
30765;BMP180;494;48.744;10.106;2023-06-10T05:53:09;95464.00;;;20.70
30765;BMP180;494;48.744;10.106;2023-06-10T05:55:43;95389.00;;;21.10
30765;BMP180;494;48.744;10.106;2023-06-10T05:58:13;95429.00;;;21.10
30765;BMP180;494;48.744;10.106;2023-06-10T06:00:41;95392.00;;;21.50
30765;BMP180;494;48.744;10.106;2023-06-10T06:03:10;95339.00;;;21.20
30765;BMP180;494;48.744;10.106;2023-06-10T06:05:41;95418.00;;;21.10
30765;BMP180;494;48.744;10.106;2023-06-10T06:08:10;95487.00;;;21.90
30765;BMP180;494;48.744;10.106;2023-06-10T06:10:40;95439.00;;;21.90
30765;BMP180;494;48.744;10.106;2023-06-10T06:13:09;95463.00;;;21.60
30765;BMP180;494;48.744;10.106;2023-06-10T06:15:37;95454.00;;;22.10
30765;BMP180;494;48.744;10.106;2023-06-10T06:18:06;95359.00;;;21.90
30765;BMP180;494;48.744;10.106;2023-06-10T06:20:35;95353.00;;;22.30
30765;BMP180;494;48.744;10.106;2023-06-10T06:23:05;95280.00;;;22.40
30765;BMP180;494;48.744;10.106;2023-06-10T06:25:35;95452.00;;;22.30
30765;BMP180;494;48.744;10.106;2023-06-10T06:28:06;95438.00;;;22.00
30765;BMP180;494;48.744;10.106;2023-06-10T06:30:36;95466.00;;;22.40
30765;BMP180;494;48.744;10.106;2023-06-10T06:33:05;95431.00;;;22.40
30765;BMP180;494;48.744;10.106;2023-06-10T06:35:34;95472.00;;;22.60
30765;BMP180;494;48.744;10.106;2023-06-10T06:38:04;95468.00;;;23.00
30765;BMP180;494;48.744;10.106;2023-06-10T06:40:32;95483.00;;;23.20
30765;BMP180;494;48.744;10.106;2023-06-10T06:43:01;95420.00;;;23.30
30765;BMP180;494;48.744;10.106;2023-06-10T06:45:30;95467.00;;;23.70
30765;BMP180;494;48.744;10.106;2023-06-10T06:48:01;95469.00;;;24.10
30765;BMP180;494;48.744;10.106;2023-06-10T06:50:30;95307.00;;;24.20
30765;BMP180;494;48.744;10.106;2023-06-10T06:52:58;95473.00;;;24.20
30765;BMP180;494;48.744;10.106;2023-06-10T06:55:29;95399.00;;;24.30
30765;BMP180;494;48.744;10.106;2023-06-10T06:57:57;95423.00;;;24.60
30765;BMP180;494;48.744;10.106;2023-06-10T07:00:30;95482.00;;;24.70
30765;BMP180;494;48.744;10.106;2023-06-10T07:02:59;95480.00;;;25.00
30765;BMP180;494;48.744;10.106;2023-06-10T07:05:27;95480.00;;;25.00
30765;BMP180;494;48.744;10.106;2023-06-10T07:07:57;95486.00;;;25.20
30765;BMP180;494;48.744;10.106;2023-06-10T07:10:28;95451.00;;;24.90
30765;BMP180;494;48.744;10.106;2023-06-10T07:12:57;95482.00;;;25.10
30765;BMP180;494;48.744;10.106;2023-06-10T07:15:25;95493.00;;;25.40
30765;BMP180;494;48.744;10.106;2023-06-10T07:17:54;95478.00;;;25.50
30765;BMP180;494;48.744;10.106;2023-06-10T07:20:23;95482.00;;;25.70
30765;BMP180;494;48.744;10.106;2023-06-10T07:22:52;95480.00;;;25.40
30765;BMP180;494;48.744;10.106;2023-06-10T07:25:21;95481.00;;;25.30
30765;BMP180;494;48.744;10.106;2023-06-10T07:27:51;95485.00;;;25.70
30765;BMP180;494;48.744;10.106;2023-06-10T07:30:19;95390.00;;;26.00
30765;BMP180;494;48.744;10.106;2023-06-10T07:32:48;95486.00;;;26.20
30765;BMP180;494;48.744;10.106;2023-06-10T07:35:18;95476.00;;;26.60
30765;BMP180;494;48.744;10.106;2023-06-10T07:37:47;95423.00;;;26.60
30765;BMP180;494;48.744;10.106;2023-06-10T07:40:16;95427.00;;;26.90
30765;BMP180;494;48.744;10.106;2023-06-10T07:42:44;95475.00;;;26.80
30765;BMP180;494;48.744;10.106;2023-06-10T07:45:14;95470.00;;;26.80
30765;BMP180;494;48.744;10.106;2023-06-10T07:47:43;95346.00;;;26.90
30765;BMP180;494;48.744;10.106;2023-06-10T07:50:12;95458.00;;;27.60
30765;BMP180;494;48.744;10.106;2023-06-10T07:52:41;95475.00;;;27.70
30765;BMP180;494;48.744;10.106;2023-06-10T07:55:10;95431.00;;;27.50
30765;BMP180;494;48.744;10.106;2023-06-10T07:57:38;95412.00;;;28.00
30765;BMP180;494;48.744;10.106;2023-06-10T08:00:09;95480.00;;;28.00
30765;BMP180;494;48.744;10.106;2023-06-10T08:02:39;95464.00;;;28.00
30765;BMP180;494;48.744;10.106;2023-06-10T08:05:08;95464.00;;;28.00
30765;BMP180;494;48.744;10.106;2023-06-10T08:07:39;95448.00;;;28.10
30765;BMP180;494;48.744;10.106;2023-06-10T08:10:08;95502.00;;;28.20
30765;BMP180;494;48.744;10.106;2023-06-10T08:12:37;95437.00;;;28.00
30765;BMP180;494;48.744;10.106;2023-06-10T08:15:07;95498.00;;;28.20
30765;BMP180;494;48.744;10.106;2023-06-10T08:17:39;95358.00;;;28.00
30765;BMP180;494;48.744;10.106;2023-06-10T08:20:08;95486.00;;;27.50
30765;BMP180;494;48.744;10.106;2023-06-10T08:22:37;95486.00;;;27.40
30765;BMP180;494;48.744;10.106;2023-06-10T08:25:08;95437.00;;;27.60
30765;BMP180;494;48.744;10.106;2023-06-10T08:27:37;95443.00;;;27.90
30765;BMP180;494;48.744;10.106;2023-06-10T08:30:07;95485.00;;;27.90
30765;BMP180;494;48.744;10.106;2023-06-10T08:32:39;95481.00;;;28.20
30765;BMP180;494;48.744;10.106;2023-06-10T08:35:09;95468.00;;;28.40
30765;BMP180;494;48.744;10.106;2023-06-10T08:37:38;95472.00;;;28.40
30765;BMP180;494;48.744;10.106;2023-06-10T08:40:09;95236.00;;;28.70
30765;BMP180;494;48.744;10.106;2023-06-10T08:42:43;95474.00;;;28.90
30765;BMP180;494;48.744;10.106;2023-06-10T08:45:17;95484.00;;;29.00
30765;BMP180;494;48.744;10.106;2023-06-10T08:47:50;95503.00;;;28.70
30765;BMP180;494;48.744;10.106;2023-06-10T08:50:21;95388.00;;;28.30
30765;BMP180;494;48.744;10.106;2023-06-10T08:52:54;95496.00;;;28.50
30765;BMP180;494;48.744;10.106;2023-06-10T08:55:29;95481.00;;;28.40
30765;BMP180;494;48.744;10.106;2023-06-10T08:57:59;95421.00;;;28.50
30765;BMP180;494;48.744;10.106;2023-06-10T09:00:30;95486.00;;;28.90
30765;BMP180;494;48.744;10.106;2023-06-10T09:03:00;95433.00;;;29.20
30765;BMP180;494;48.744;10.106;2023-06-10T09:05:34;95485.00;;;28.70
30765;BMP180;494;48.744;10.106;2023-06-10T09:08:05;95376.00;;;28.80
30765;BMP180;494;48.744;10.106;2023-06-10T09:10:34;95390.00;;;28.00
30765;BMP180;494;48.744;10.106;2023-06-10T09:13:03;95484.00;;;28.10
30765;BMP180;494;48.744;10.106;2023-06-10T09:15:32;95265.00;;;28.60
30765;BMP180;494;48.744;10.106;2023-06-10T09:18:03;95478.00;;;28.60
30765;BMP180;494;48.744;10.106;2023-06-10T09:20:32;95481.00;;;29.10
30765;BMP180;494;48.744;10.106;2023-06-10T09:23:02;95494.00;;;29.60
30765;BMP180;494;48.744;10.106;2023-06-10T09:25:38;95484.00;;;30.00
30765;BMP180;494;48.744;10.106;2023-06-10T09:28:14;95464.00;;;29.80
30765;BMP180;494;48.744;10.106;2023-06-10T09:30:43;95481.00;;;29.70
30765;BMP180;494;48.744;10.106;2023-06-10T09:33:14;95483.00;;;29.70
30765;BMP180;494;48.744;10.106;2023-06-10T09:35:47;95463.00;;;29.40
30765;BMP180;494;48.744;10.106;2023-06-10T09:38:21;95489.00;;;29.50
30765;BMP180;494;48.744;10.106;2023-06-10T09:40:51;95421.00;;;29.60
30765;BMP180;494;48.744;10.106;2023-06-10T09:43:21;95510.00;;;29.50
30765;BMP180;494;48.744;10.106;2023-06-10T09:45:50;95489.00;;;29.40
30765;BMP180;494;48.744;10.106;2023-06-10T09:48:22;95491.00;;;29.00
30765;BMP180;494;48.744;10.106;2023-06-10T09:50:51;95493.00;;;29.00
30765;BMP180;494;48.744;10.106;2023-06-10T09:53:20;95429.00;;;28.90
30765;BMP180;494;48.744;10.106;2023-06-10T09:55:50;95413.00;;;29.40
30765;BMP180;494;48.744;10.106;2023-06-10T09:58:35;95488.00;;;29.30
30765;BMP180;494;48.744;10.106;2023-06-10T10:01:08;95432.00;;;29.00
30765;BMP180;494;48.744;10.106;2023-06-10T10:03:47;95482.00;;;29.50
30765;BMP180;494;48.744;10.106;2023-06-10T10:06:17;95434.00;;;29.60
30765;BMP180;494;48.744;10.106;2023-06-10T10:08:48;95479.00;;;30.00
30765;BMP180;494;48.744;10.106;2023-06-10T10:11:20;95412.00;;;30.70
30765;BMP180;494;48.744;10.106;2023-06-10T10:13:51;95481.00;;;30.70
30765;BMP180;494;48.744;10.106;2023-06-10T10:16:23;95469.00;;;30.90
30765;BMP180;494;48.744;10.106;2023-06-10T10:19:07;95472.00;;;30.60
30765;BMP180;494;48.744;10.106;2023-06-10T10:21:55;95472.00;;;30.50
30765;BMP180;494;48.744;10.106;2023-06-10T10:24:33;95473.00;;;29.70
30765;BMP180;494;48.744;10.106;2023-06-10T10:27:12;95499.00;;;29.70
30765;BMP180;494;48.744;10.106;2023-06-10T10:29:48;95436.00;;;29.30
30765;BMP180;494;48.744;10.106;2023-06-10T10:32:22;95438.00;;;30.10
30765;BMP180;494;48.744;10.106;2023-06-10T10:35:04;95346.00;;;30.20
30765;BMP180;494;48.744;10.106;2023-06-10T10:37:36;95392.00;;;29.90
30765;BMP180;494;48.744;10.106;2023-06-10T10:40:07;95465.00;;;28.80
30765;BMP180;494;48.744;10.106;2023-06-10T10:42:39;95473.00;;;29.50
30765;BMP180;494;48.744;10.106;2023-06-10T10:45:09;95478.00;;;29.60
30765;BMP180;494;48.744;10.106;2023-06-10T10:47:41;95465.00;;;29.70
30765;BMP180;494;48.744;10.106;2023-06-10T10:50:19;95428.00;;;29.60
30765;BMP180;494;48.744;10.106;2023-06-10T10:52:56;95465.00;;;30.00
30765;BMP180;494;48.744;10.106;2023-06-10T10:55:25;95463.00;;;30.20
30765;BMP180;494;48.744;10.106;2023-06-10T10:57:56;95426.00;;;30.80
30765;BMP180;494;48.744;10.106;2023-06-10T11:00:28;95466.00;;;30.80
30765;BMP180;494;48.744;10.106;2023-06-10T11:03:05;95411.00;;;31.00
30765;BMP180;494;48.744;10.106;2023-06-10T11:05:41;95479.00;;;31.20
30765;BMP180;494;48.744;10.106;2023-06-10T11:08:12;95341.00;;;30.70
30765;BMP180;494;48.744;10.106;2023-06-10T11:10:51;95465.00;;;31.00
30765;BMP180;494;48.744;10.106;2023-06-10T11:13:22;95459.00;;;30.70
30765;BMP180;494;48.744;10.106;2023-06-10T11:15:51;95460.00;;;31.50
30765;BMP180;494;48.744;10.106;2023-06-10T11:18:24;95439.00;;;31.90
30765;BMP180;494;48.744;10.106;2023-06-10T11:20:57;95468.00;;;32.30
30765;BMP180;494;48.744;10.106;2023-06-10T11:23:41;95411.00;;;32.60
30765;BMP180;494;48.744;10.106;2023-06-10T11:26:34;95463.00;;;32.70
30765;BMP180;494;48.744;10.106;2023-06-10T11:29:08;95459.00;;;32.70
30765;BMP180;494;48.744;10.106;2023-06-10T11:31:46;95415.00;;;32.30
30765;BMP180;494;48.744;10.106;2023-06-10T11:34:22;95394.00;;;32.30
30765;BMP180;494;48.744;10.106;2023-06-10T11:36:53;95320.00;;;32.90
30765;BMP180;494;48.744;10.106;2023-06-10T11:39:23;95453.00;;;33.30
30765;BMP180;494;48.744;10.106;2023-06-10T11:41:54;95450.00;;;32.70
30765;BMP180;494;48.744;10.106;2023-06-10T11:44:28;95465.00;;;32.20
30765;BMP180;494;48.744;10.106;2023-06-10T11:46:57;95446.00;;;32.00
30765;BMP180;494;48.744;10.106;2023-06-10T11:49:26;95442.00;;;32.70
30765;BMP180;494;48.744;10.106;2023-06-10T11:51:56;95467.00;;;32.90
30765;BMP180;494;48.744;10.106;2023-06-10T11:54:24;95411.00;;;32.10
30765;BMP180;494;48.744;10.106;2023-06-10T11:56:58;95469.00;;;32.00
30765;BMP180;494;48.744;10.106;2023-06-10T11:59:27;95336.00;;;31.70
30765;BMP180;494;48.744;10.106;2023-06-10T12:01:57;95458.00;;;31.30
30765;BMP180;494;48.744;10.106;2023-06-10T12:04:27;95461.00;;;30.70
30765;BMP180;494;48.744;10.106;2023-06-10T12:06:57;95458.00;;;30.60
30765;BMP180;494;48.744;10.106;2023-06-10T12:09:28;95459.00;;;30.80
30765;BMP180;494;48.744;10.106;2023-06-10T12:11:59;95453.00;;;31.90
30765;BMP180;494;48.744;10.106;2023-06-10T12:14:52;95459.00;;;32.40
30765;BMP180;494;48.744;10.106;2023-06-10T12:17:37;95443.00;;;33.30
30765;BMP180;494;48.744;10.106;2023-06-10T12:20:08;95419.00;;;33.00
30765;BMP180;494;48.744;10.106;2023-06-10T12:22:43;95464.00;;;33.20
30765;BMP180;494;48.744;10.106;2023-06-10T12:25:12;95383.00;;;32.60
30765;BMP180;494;48.744;10.106;2023-06-10T12:27:52;95446.00;;;33.00
30765;BMP180;494;48.744;10.106;2023-06-10T12:30:23;95464.00;;;33.10
30765;BMP180;494;48.744;10.106;2023-06-10T12:32:52;95434.00;;;32.30
30765;BMP180;494;48.744;10.106;2023-06-10T12:35:24;95459.00;;;32.20
30765;BMP180;494;48.744;10.106;2023-06-10T12:38:01;95378.00;;;31.50
30765;BMP180;494;48.744;10.106;2023-06-10T12:40:32;95463.00;;;31.30
30765;BMP180;494;48.744;10.106;2023-06-10T12:43:02;95481.00;;;31.20
30765;BMP180;494;48.744;10.106;2023-06-10T12:45:33;95415.00;;;30.50
30765;BMP180;494;48.744;10.106;2023-06-10T12:48:06;95463.00;;;30.40
30765;BMP180;494;48.744;10.106;2023-06-10T12:50:39;95450.00;;;30.20
30765;BMP180;494;48.744;10.106;2023-06-10T12:53:10;95451.00;;;30.20
30765;BMP180;494;48.744;10.106;2023-06-10T12:55:39;95443.00;;;30.50
30765;BMP180;494;48.744;10.106;2023-06-10T12:58:08;95433.00;;;31.20
30765;BMP180;494;48.744;10.106;2023-06-10T13:00:37;95430.00;;;32.30
30765;BMP180;494;48.744;10.106;2023-06-10T13:03:07;95365.00;;;32.60
30765;BMP180;494;48.744;10.106;2023-06-10T13:05:37;95435.00;;;32.30
30765;BMP180;494;48.744;10.106;2023-06-10T13:08:07;95440.00;;;31.70
30765;BMP180;494;48.744;10.106;2023-06-10T13:10:39;95437.00;;;32.30
30765;BMP180;494;48.744;10.106;2023-06-10T13:13:07;95432.00;;;33.00
30765;BMP180;494;48.744;10.106;2023-06-10T13:15:38;95435.00;;;33.70
30765;BMP180;494;48.744;10.106;2023-06-10T13:18:10;95317.00;;;34.10
30765;BMP180;494;48.744;10.106;2023-06-10T13:20:39;95415.00;;;34.40
30765;BMP180;494;48.744;10.106;2023-06-10T13:23:08;95315.00;;;34.50
30765;BMP180;494;48.744;10.106;2023-06-10T13:25:39;95430.00;;;35.30
30765;BMP180;494;48.744;10.106;2023-06-10T13:28:08;95435.00;;;35.30
30765;BMP180;494;48.744;10.106;2023-06-10T13:30:36;95424.00;;;36.00
30765;BMP180;494;48.744;10.106;2023-06-10T13:33:05;95288.00;;;36.20
30765;BMP180;494;48.744;10.106;2023-06-10T13:35:34;95398.00;;;36.20
30765;BMP180;494;48.744;10.106;2023-06-10T13:38:03;95438.00;;;36.60
30765;BMP180;494;48.744;10.106;2023-06-10T13:40:31;95433.00;;;37.00
30765;BMP180;494;48.744;10.106;2023-06-10T13:43:02;95431.00;;;36.60
30765;BMP180;494;48.744;10.106;2023-06-10T13:45:30;95430.00;;;36.80
30765;BMP180;494;48.744;10.106;2023-06-10T13:47:59;95425.00;;;37.10
30765;BMP180;494;48.744;10.106;2023-06-10T13:50:28;95423.00;;;37.90
30765;BMP180;494;48.744;10.106;2023-06-10T13:52:57;95423.00;;;38.10
30765;BMP180;494;48.744;10.106;2023-06-10T13:55:29;95401.00;;;38.00
30765;BMP180;494;48.744;10.106;2023-06-10T13:57:58;95424.00;;;37.50
30765;BMP180;494;48.744;10.106;2023-06-10T14:00:28;95358.00;;;36.80
30765;BMP180;494;48.744;10.106;2023-06-10T14:02:57;95427.00;;;37.20
30765;BMP180;494;48.744;10.106;2023-06-10T14:05:25;95417.00;;;38.00
30765;BMP180;494;48.744;10.106;2023-06-10T14:07:57;95426.00;;;38.10
30765;BMP180;494;48.744;10.106;2023-06-10T14:10:26;95380.00;;;37.20
30765;BMP180;494;48.744;10.106;2023-06-10T14:12:55;95421.00;;;37.00
30765;BMP180;494;48.744;10.106;2023-06-10T14:15:24;95416.00;;;37.20
30765;BMP180;494;48.744;10.106;2023-06-10T14:17:54;95416.00;;;37.70
30765;BMP180;494;48.744;10.106;2023-06-10T14:20:23;95363.00;;;37.10
30765;BMP180;494;48.744;10.106;2023-06-10T14:22:52;95419.00;;;36.90
30765;BMP180;494;48.744;10.106;2023-06-10T14:25:21;95418.00;;;37.30
30765;BMP180;494;48.744;10.106;2023-06-10T14:27:49;95401.00;;;37.30
30765;BMP180;494;48.744;10.106;2023-06-10T14:30:18;95387.00;;;37.70
30765;BMP180;494;48.744;10.106;2023-06-10T14:32:47;95419.00;;;37.70
30765;BMP180;494;48.744;10.106;2023-06-10T14:35:17;95220.00;;;38.00
30765;BMP180;494;48.744;10.106;2023-06-10T14:37:46;95349.00;;;38.00
30765;BMP180;494;48.744;10.106;2023-06-10T14:40:14;95405.00;;;37.80